sensor_id;sensor_type;location;lat;lon;timestamp;P1;durP1;ratioP1;P2;durP2;ratioP2
920;SDS011;447;51.332;6.778;2023-06-26T00:01:52;8.80;;;8.07;;
920;SDS011;447;51.332;6.778;2023-06-26T00:04:18;8.27;;;7.67;;
920;SDS011;447;51.332;6.778;2023-06-26T00:06:44;8.80;;;8.10;;
920;SDS011;447;51.332;6.778;2023-06-26T00:09:12;9.80;;;9.10;;
920;SDS011;447;51.332;6.778;2023-06-26T00:11:38;8.33;;;7.73;;
920;SDS011;447;51.332;6.778;2023-06-26T00:14:08;9.20;;;8.50;;
920;SDS011;447;51.332;6.778;2023-06-26T00:16:34;7.67;;;7.17;;
920;SDS011;447;51.332;6.778;2023-06-26T00:19:01;8.90;;;8.20;;
920;SDS011;447;51.332;6.778;2023-06-26T00:21:29;9.50;;;8.80;;
920;SDS011;447;51.332;6.778;2023-06-26T00:23:59;8.77;;;8.10;;
920;SDS011;447;51.332;6.778;2023-06-26T00:26:24;10.10;;;9.30;;
920;SDS011;447;51.332;6.778;2023-06-26T00:28:50;8.70;;;7.90;;
920;SDS011;447;51.332;6.778;2023-06-26T00:31:16;8.67;;;7.97;;
920;SDS011;447;51.332;6.778;2023-06-26T00:33:42;9.20;;;8.50;;
920;SDS011;447;51.332;6.778;2023-06-26T00:36:08;9.60;;;8.80;;
920;SDS011;447;51.332;6.778;2023-06-26T00:38:35;9.47;;;8.77;;
920;SDS011;447;51.332;6.778;2023-06-26T00:41:05;10.67;;;9.87;;
920;SDS011;447;51.332;6.778;2023-06-26T00:43:40;9.70;;;8.90;;
920;SDS011;447;51.332;6.778;2023-06-26T00:46:12;9.87;;;9.00;;
920;SDS011;447;51.332;6.778;2023-06-26T00:48:42;10.13;;;9.37;;
920;SDS011;447;51.332;6.778;2023-06-26T00:51:09;9.93;;;9.13;;
920;SDS011;447;51.332;6.778;2023-06-26T00:53:36;9.17;;;8.40;;
920;SDS011;447;51.332;6.778;2023-06-26T00:56:04;8.97;;;8.27;;
920;SDS011;447;51.332;6.778;2023-06-26T00:58:31;9.07;;;8.37;;
920;SDS011;447;51.332;6.778;2023-06-26T01:00:57;9.37;;;8.67;;
920;SDS011;447;51.332;6.778;2023-06-26T01:03:23;9.23;;;8.43;;
920;SDS011;447;51.332;6.778;2023-06-26T01:05:51;10.50;;;9.60;;
920;SDS011;447;51.332;6.778;2023-06-26T01:08:21;9.13;;;8.43;;
920;SDS011;447;51.332;6.778;2023-06-26T01:10:50;9.43;;;8.73;;
920;SDS011;447;51.332;6.778;2023-06-26T01:13:20;9.00;;;8.03;;
920;SDS011;447;51.332;6.778;2023-06-26T01:15:51;8.27;;;7.67;;
920;SDS011;447;51.332;6.778;2023-06-26T01:18:19;8.87;;;8.17;;
920;SDS011;447;51.332;6.778;2023-06-26T01:20:45;8.93;;;8.20;;
920;SDS011;447;51.332;6.778;2023-06-26T01:23:16;9.40;;;8.70;;
920;SDS011;447;51.332;6.778;2023-06-26T01:26:09;9.37;;;8.63;;
920;SDS011;447;51.332;6.778;2023-06-26T01:28:41;10.17;;;9.37;;
920;SDS011;447;51.332;6.778;2023-06-26T01:31:10;9.80;;;9.10;;
920;SDS011;447;51.332;6.778;2023-06-26T01:33:38;8.10;;;7.50;;
920;SDS011;447;51.332;6.778;2023-06-26T01:36:10;9.40;;;8.70;;
920;SDS011;447;51.332;6.778;2023-06-26T01:38:38;9.43;;;8.73;;
920;SDS011;447;51.332;6.778;2023-06-26T01:41:07;8.80;;;8.10;;
920;SDS011;447;51.332;6.778;2023-06-26T01:46:30;8.97;;;8.27;;
920;SDS011;447;51.332;6.778;2023-06-26T01:52:07;9.53;;;8.80;;
920;SDS011;447;51.332;6.778;2023-06-26T01:57:41;8.90;;;8.20;;
920;SDS011;447;51.332;6.778;2023-06-26T02:00:17;11.60;;;8.97;;
920;SDS011;447;51.332;6.778;2023-06-26T02:02:46;10.20;;;9.30;;
920;SDS011;447;51.332;6.778;2023-06-26T02:05:15;9.00;;;8.30;;
920;SDS011;447;51.332;6.778;2023-06-26T02:07:42;9.30;;;8.60;;
920;SDS011;447;51.332;6.778;2023-06-26T02:10:12;9.00;;;8.30;;
920;SDS011;447;51.332;6.778;2023-06-26T02:12:38;8.83;;;8.20;;
920;SDS011;447;51.332;6.778;2023-06-26T02:15:06;9.63;;;8.90;;
920;SDS011;447;51.332;6.778;2023-06-26T02:17:33;10.10;;;9.30;;
920;SDS011;447;51.332;6.778;2023-06-26T02:19:59;9.07;;;8.30;;
920;SDS011;447;51.332;6.778;2023-06-26T02:22:29;8.70;;;8.00;;
920;SDS011;447;51.332;6.778;2023-06-26T02:24:57;9.40;;;8.67;;
920;SDS011;447;51.332;6.778;2023-06-26T02:27:23;9.23;;;8.53;;
920;SDS011;447;51.332;6.778;2023-06-26T02:29:49;9.60;;;8.90;;
920;SDS011;447;51.332;6.778;2023-06-26T02:32:14;9.10;;;8.40;;
920;SDS011;447;51.332;6.778;2023-06-26T02:34:45;9.80;;;9.10;;
920;SDS011;447;51.332;6.778;2023-06-26T02:37:13;8.90;;;8.20;;
920;SDS011;447;51.332;6.778;2023-06-26T02:39:41;8.90;;;8.20;;
920;SDS011;447;51.332;6.778;2023-06-26T02:42:09;9.50;;;8.80;;
920;SDS011;447;51.332;6.778;2023-06-26T02:44:35;8.50;;;7.80;;
920;SDS011;447;51.332;6.778;2023-06-26T02:47:01;9.63;;;8.83;;
920;SDS011;447;51.332;6.778;2023-06-26T02:49:30;8.90;;;8.30;;
920;SDS011;447;51.332;6.778;2023-06-26T02:51:59;9.97;;;9.20;;
920;SDS011;447;51.332;6.778;2023-06-26T02:54:27;8.93;;;8.23;;
920;SDS011;447;51.332;6.778;2023-06-26T02:56:59;9.50;;;8.80;;
920;SDS011;447;51.332;6.778;2023-06-26T02:59:28;9.87;;;9.00;;
920;SDS011;447;51.332;6.778;2023-06-26T03:01:58;10.20;;;9.40;;
920;SDS011;447;51.332;6.778;2023-06-26T03:04:35;9.17;;;8.47;;
920;SDS011;447;51.332;6.778;2023-06-26T03:07:03;9.30;;;8.63;;
920;SDS011;447;51.332;6.778;2023-06-26T03:09:32;9.73;;;9.03;;
920;SDS011;447;51.332;6.778;2023-06-26T03:11:59;8.97;;;8.27;;
920;SDS011;447;51.332;6.778;2023-06-26T03:14:24;9.87;;;9.07;;
920;SDS011;447;51.332;6.778;2023-06-26T03:16:52;9.40;;;8.70;;
920;SDS011;447;51.332;6.778;2023-06-26T03:19:21;9.70;;;8.97;;
920;SDS011;447;51.332;6.778;2023-06-26T03:22:27;8.93;;;8.33;;
920;SDS011;447;51.332;6.778;2023-06-26T03:24:53;9.10;;;8.20;;
920;SDS011;447;51.332;6.778;2023-06-26T03:27:21;8.77;;;8.07;;
920;SDS011;447;51.332;6.778;2023-06-26T03:29:48;10.30;;;9.50;;
920;SDS011;447;51.332;6.778;2023-06-26T03:32:15;8.80;;;8.10;;
920;SDS011;447;51.332;6.778;2023-06-26T03:34:41;9.10;;;8.30;;
920;SDS011;447;51.332;6.778;2023-06-26T03:37:07;8.90;;;8.30;;
920;SDS011;447;51.332;6.778;2023-06-26T03:39:33;8.70;;;8.00;;
920;SDS011;447;51.332;6.778;2023-06-26T03:41:59;8.47;;;7.87;;
920;SDS011;447;51.332;6.778;2023-06-26T03:44:28;8.60;;;7.90;;
920;SDS011;447;51.332;6.778;2023-06-26T03:46:56;9.50;;;8.70;;
920;SDS011;447;51.332;6.778;2023-06-26T03:49:22;9.43;;;8.63;;
920;SDS011;447;51.332;6.778;2023-06-26T03:51:51;9.23;;;8.53;;
920;SDS011;447;51.332;6.778;2023-06-26T03:54:20;9.13;;;8.33;;
920;SDS011;447;51.332;6.778;2023-06-26T03:56:48;9.30;;;8.60;;
920;SDS011;447;51.332;6.778;2023-06-26T03:59:18;8.73;;;8.07;;
920;SDS011;447;51.332;6.778;2023-06-26T04:01:44;8.13;;;7.53;;
920;SDS011;447;51.332;6.778;2023-06-26T04:04:10;8.60;;;7.80;;
920;SDS011;447;51.332;6.778;2023-06-26T04:06:36;8.43;;;7.80;;
920;SDS011;447;51.332;6.778;2023-06-26T04:09:05;8.60;;;7.90;;
920;SDS011;447;51.332;6.778;2023-06-26T04:11:30;8.60;;;7.93;;
920;SDS011;447;51.332;6.778;2023-06-26T04:13:57;9.37;;;8.57;;
920;SDS011;447;51.332;6.778;2023-06-26T04:16:23;8.40;;;7.70;;
920;SDS011;447;51.332;6.778;2023-06-26T04:18:51;8.10;;;7.47;;
920;SDS011;447;51.332;6.778;2023-06-26T04:21:17;7.77;;;7.07;;
920;SDS011;447;51.332;6.778;2023-06-26T04:23:43;8.90;;;8.10;;
920;SDS011;447;51.332;6.778;2023-06-26T04:26:09;8.87;;;8.17;;
920;SDS011;447;51.332;6.778;2023-06-26T04:28:38;8.23;;;7.63;;
920;SDS011;447;51.332;6.778;2023-06-26T04:31:04;8.77;;;8.07;;
920;SDS011;447;51.332;6.778;2023-06-26T04:33:30;8.30;;;7.60;;
920;SDS011;447;51.332;6.778;2023-06-26T04:35:58;8.60;;;7.90;;
920;SDS011;447;51.332;6.778;2023-06-26T04:38:28;8.50;;;7.80;;
920;SDS011;447;51.332;6.778;2023-06-26T04:40:54;8.40;;;7.70;;
920;SDS011;447;51.332;6.778;2023-06-26T04:43:20;8.37;;;7.67;;
920;SDS011;447;51.332;6.778;2023-06-26T04:45:46;8.57;;;7.90;;
920;SDS011;447;51.332;6.778;2023-06-26T04:48:13;8.73;;;7.83;;
920;SDS011;447;51.332;6.778;2023-06-26T04:50:41;8.13;;;7.53;;
920;SDS011;447;51.332;6.778;2023-06-26T04:53:07;8.57;;;7.87;;
920;SDS011;447;51.332;6.778;2023-06-26T04:55:33;9.07;;;8.27;;
920;SDS011;447;51.332;6.778;2023-06-26T04:58:00;8.07;;;7.43;;
920;SDS011;447;51.332;6.778;2023-06-26T05:00:30;8.13;;;7.53;;
920;SDS011;447;51.332;6.778;2023-06-26T05:02:57;8.10;;;7.40;;
920;SDS011;447;51.332;6.778;2023-06-26T05:05:29;8.20;;;7.53;;
920;SDS011;447;51.332;6.778;2023-06-26T05:07:55;8.57;;;7.87;;
920;SDS011;447;51.332;6.778;2023-06-26T05:10:23;8.43;;;7.73;;
920;SDS011;447;51.332;6.778;2023-06-26T05:12:49;7.73;;;7.13;;
920;SDS011;447;51.332;6.778;2023-06-26T05:15:17;8.37;;;7.67;;
920;SDS011;447;51.332;6.778;2023-06-26T05:17:43;8.33;;;7.67;;
920;SDS011;447;51.332;6.778;2023-06-26T05:20:09;8.00;;;7.40;;
920;SDS011;447;51.332;6.778;2023-06-26T05:22:35;7.43;;;6.83;;
920;SDS011;447;51.332;6.778;2023-06-26T05:25:04;7.70;;;7.10;;
920;SDS011;447;51.332;6.778;2023-06-26T05:27:33;8.23;;;7.53;;
920;SDS011;447;51.332;6.778;2023-06-26T05:29:59;7.60;;;7.10;;
920;SDS011;447;51.332;6.778;2023-06-26T05:32:30;7.53;;;6.93;;
920;SDS011;447;51.332;6.778;2023-06-26T05:35:02;6.93;;;6.43;;
920;SDS011;447;51.332;6.778;2023-06-26T05:37:32;7.80;;;7.20;;
920;SDS011;447;51.332;6.778;2023-06-26T05:40:02;8.73;;;7.27;;
920;SDS011;447;51.332;6.778;2023-06-26T05:42:29;8.47;;;7.73;;
920;SDS011;447;51.332;6.778;2023-06-26T05:44:55;7.00;;;6.50;;
920;SDS011;447;51.332;6.778;2023-06-26T05:47:21;7.40;;;6.80;;
920;SDS011;447;51.332;6.778;2023-06-26T05:49:48;7.60;;;7.03;;
920;SDS011;447;51.332;6.778;2023-06-26T05:52:16;7.60;;;6.77;;
920;SDS011;447;51.332;6.778;2023-06-26T05:54:42;7.43;;;6.73;;
920;SDS011;447;51.332;6.778;2023-06-26T05:57:11;8.00;;;7.40;;
920;SDS011;447;51.332;6.778;2023-06-26T05:59:39;8.03;;;7.33;;
920;SDS011;447;51.332;6.778;2023-06-26T06:02:07;6.93;;;6.30;;
920;SDS011;447;51.332;6.778;2023-06-26T06:04:32;7.13;;;6.50;;
920;SDS011;447;51.332;6.778;2023-06-26T06:06:58;7.10;;;6.60;;
920;SDS011;447;51.332;6.778;2023-06-26T06:12:18;7.20;;;6.60;;
920;SDS011;447;51.332;6.778;2023-06-26T06:14:44;7.53;;;6.83;;
920;SDS011;447;51.332;6.778;2023-06-26T06:17:09;6.73;;;6.13;;
920;SDS011;447;51.332;6.778;2023-06-26T06:19:40;6.80;;;6.10;;
920;SDS011;447;51.332;6.778;2023-06-26T06:22:06;6.60;;;6.00;;
920;SDS011;447;51.332;6.778;2023-06-26T06:24:32;6.97;;;6.37;;
920;SDS011;447;51.332;6.778;2023-06-26T06:27:00;6.80;;;6.20;;
920;SDS011;447;51.332;6.778;2023-06-26T06:29:31;6.67;;;6.17;;
920;SDS011;447;51.332;6.778;2023-06-26T06:31:57;6.20;;;5.70;;
920;SDS011;447;51.332;6.778;2023-06-26T06:34:27;7.17;;;6.47;;
920;SDS011;447;51.332;6.778;2023-06-26T06:36:55;6.73;;;5.90;;
920;SDS011;447;51.332;6.778;2023-06-26T06:39:23;6.80;;;6.30;;
920;SDS011;447;51.332;6.778;2023-06-26T06:41:49;6.83;;;6.00;;
920;SDS011;447;51.332;6.778;2023-06-26T06:44:18;6.97;;;6.10;;
920;SDS011;447;51.332;6.778;2023-06-26T06:46:46;6.47;;;5.97;;
920;SDS011;447;51.332;6.778;2023-06-26T06:49:12;7.47;;;6.70;;
920;SDS011;447;51.332;6.778;2023-06-26T06:51:39;6.60;;;5.67;;
920;SDS011;447;51.332;6.778;2023-06-26T06:54:05;9.93;;;6.80;;
920;SDS011;447;51.332;6.778;2023-06-26T06:56:31;6.87;;;5.97;;
920;SDS011;447;51.332;6.778;2023-06-26T06:58:57;6.33;;;5.73;;
920;SDS011;447;51.332;6.778;2023-06-26T07:01:23;7.13;;;6.37;;
920;SDS011;447;51.332;6.778;2023-06-26T07:03:51;6.10;;;5.50;;
920;SDS011;447;51.332;6.778;2023-06-26T07:10:26;8.10;;;5.53;;
920;SDS011;447;51.332;6.778;2023-06-26T07:12:52;6.73;;;6.13;;
920;SDS011;447;51.332;6.778;2023-06-26T07:15:18;9.43;;;6.73;;
920;SDS011;447;51.332;6.778;2023-06-26T07:17:44;6.87;;;6.27;;
920;SDS011;447;51.332;6.778;2023-06-26T07:20:10;6.90;;;6.20;;
920;SDS011;447;51.332;6.778;2023-06-26T07:22:40;6.13;;;5.53;;
920;SDS011;447;51.332;6.778;2023-06-26T07:25:09;7.70;;;6.43;;
920;SDS011;447;51.332;6.778;2023-06-26T07:27:37;6.63;;;6.00;;
920;SDS011;447;51.332;6.778;2023-06-26T07:30:03;7.50;;;6.10;;
920;SDS011;447;51.332;6.778;2023-06-26T07:32:30;6.80;;;6.30;;
920;SDS011;447;51.332;6.778;2023-06-26T07:34:56;6.30;;;5.70;;
920;SDS011;447;51.332;6.778;2023-06-26T07:37:22;7.20;;;6.10;;
920;SDS011;447;51.332;6.778;2023-06-26T07:39:49;6.60;;;6.00;;
920;SDS011;447;51.332;6.778;2023-06-26T07:42:17;6.43;;;5.87;;
920;SDS011;447;51.332;6.778;2023-06-26T07:44:43;9.10;;;6.13;;
920;SDS011;447;51.332;6.778;2023-06-26T07:47:10;6.50;;;5.90;;
920;SDS011;447;51.332;6.778;2023-06-26T07:49:36;6.90;;;6.23;;
920;SDS011;447;51.332;6.778;2023-06-26T07:52:04;9.60;;;6.13;;
920;SDS011;447;51.332;6.778;2023-06-26T07:54:31;7.53;;;6.77;;
920;SDS011;447;51.332;6.778;2023-06-26T07:56:58;6.10;;;5.57;;
920;SDS011;447;51.332;6.778;2023-06-26T07:59:28;6.77;;;6.20;;
920;SDS011;447;51.332;6.778;2023-06-26T08:01:57;6.50;;;6.00;;
920;SDS011;447;51.332;6.778;2023-06-26T08:04:26;6.47;;;5.90;;
920;SDS011;447;51.332;6.778;2023-06-26T08:06:53;7.13;;;6.43;;
920;SDS011;447;51.332;6.778;2023-06-26T08:09:21;8.77;;;6.50;;
920;SDS011;447;51.332;6.778;2023-06-26T08:11:51;7.60;;;6.53;;
920;SDS011;447;51.332;6.778;2023-06-26T08:14:20;6.50;;;5.90;;
920;SDS011;447;51.332;6.778;2023-06-26T08:16:46;9.33;;;6.33;;
920;SDS011;447;51.332;6.778;2023-06-26T08:19:13;7.17;;;6.40;;
920;SDS011;447;51.332;6.778;2023-06-26T08:21:40;7.63;;;6.93;;
920;SDS011;447;51.332;6.778;2023-06-26T08:24:06;8.10;;;6.60;;
920;SDS011;447;51.332;6.778;2023-06-26T08:26:33;12.10;;;6.87;;
920;SDS011;447;51.332;6.778;2023-06-26T08:28:59;14.20;;;7.33;;
920;SDS011;447;51.332;6.778;2023-06-26T08:31:25;21.60;;;6.70;;
920;SDS011;447;51.332;6.778;2023-06-26T08:33:51;21.60;;;7.03;;
920;SDS011;447;51.332;6.778;2023-06-26T08:36:17;11.50;;;6.80;;
920;SDS011;447;51.332;6.778;2023-06-26T08:38:43;8.50;;;6.73;;
920;SDS011;447;51.332;6.778;2023-06-26T08:41:09;9.13;;;6.27;;
920;SDS011;447;51.332;6.778;2023-06-26T08:43:35;18.93;;;7.00;;
920;SDS011;447;51.332;6.778;2023-06-26T08:46:02;18.33;;;6.80;;
920;SDS011;447;51.332;6.778;2023-06-26T08:48:31;12.87;;;6.60;;
920;SDS011;447;51.332;6.778;2023-06-26T08:51:09;20.60;;;6.40;;
920;SDS011;447;51.332;6.778;2023-06-26T08:56:19;13.73;;;6.10;;
920;SDS011;447;51.332;6.778;2023-06-26T08:58:53;20.10;;;6.80;;
920;SDS011;447;51.332;6.778;2023-06-26T09:01:20;12.33;;;5.57;;
920;SDS011;447;51.332;6.778;2023-06-26T09:03:46;11.00;;;6.07;;
920;SDS011;447;51.332;6.778;2023-06-26T09:06:12;14.43;;;5.77;;
920;SDS011;447;51.332;6.778;2023-06-26T09:08:42;13.57;;;6.00;;
920;SDS011;447;51.332;6.778;2023-06-26T09:11:08;8.40;;;5.13;;
920;SDS011;447;51.332;6.778;2023-06-26T09:13:33;18.30;;;6.10;;
920;SDS011;447;51.332;6.778;2023-06-26T09:16:03;11.00;;;6.03;;
920;SDS011;447;51.332;6.778;2023-06-26T09:18:32;18.43;;;5.73;;
920;SDS011;447;51.332;6.778;2023-06-26T09:20:58;7.43;;;5.73;;
920;SDS011;447;51.332;6.778;2023-06-26T09:23:25;7.30;;;6.00;;
920;SDS011;447;51.332;6.778;2023-06-26T09:25:54;9.07;;;5.53;;
920;SDS011;447;51.332;6.778;2023-06-26T09:28:21;10.23;;;6.07;;
920;SDS011;447;51.332;6.778;2023-06-26T09:30:47;8.33;;;6.30;;
920;SDS011;447;51.332;6.778;2023-06-26T09:33:16;13.47;;;5.30;;
920;SDS011;447;51.332;6.778;2023-06-26T09:35:44;6.83;;;5.40;;
920;SDS011;447;51.332;6.778;2023-06-26T09:38:11;7.57;;;5.07;;
920;SDS011;447;51.332;6.778;2023-06-26T09:40:38;5.80;;;5.20;;
920;SDS011;447;51.332;6.778;2023-06-26T09:43:05;6.33;;;5.50;;
920;SDS011;447;51.332;6.778;2023-06-26T09:45:34;8.07;;;5.47;;
920;SDS011;447;51.332;6.778;2023-06-26T09:48:49;5.60;;;5.10;;
920;SDS011;447;51.332;6.778;2023-06-26T09:51:22;5.90;;;5.40;;
920;SDS011;447;51.332;6.778;2023-06-26T09:53:48;7.33;;;5.73;;
920;SDS011;447;51.332;6.778;2023-06-26T09:56:17;5.40;;;4.90;;
920;SDS011;447;51.332;6.778;2023-06-26T09:58:43;6.23;;;5.23;;
920;SDS011;447;51.332;6.778;2023-06-26T10:01:10;7.70;;;5.30;;
920;SDS011;447;51.332;6.778;2023-06-26T10:03:42;6.03;;;5.30;;
920;SDS011;447;51.332;6.778;2023-06-26T10:06:09;5.60;;;4.73;;
920;SDS011;447;51.332;6.778;2023-06-26T10:08:41;8.13;;;4.97;;
920;SDS011;447;51.332;6.778;2023-06-26T10:11:08;5.47;;;4.97;;
920;SDS011;447;51.332;6.778;2023-06-26T10:13:43;5.60;;;4.80;;
920;SDS011;447;51.332;6.778;2023-06-26T10:16:30;8.57;;;5.30;;
920;SDS011;447;51.332;6.778;2023-06-26T10:19:13;6.03;;;5.47;;
920;SDS011;447;51.332;6.778;2023-06-26T10:21:40;5.93;;;5.17;;
920;SDS011;447;51.332;6.778;2023-06-26T10:24:07;6.93;;;4.87;;
920;SDS011;447;51.332;6.778;2023-06-26T10:26:44;6.90;;;5.17;;
920;SDS011;447;51.332;6.778;2023-06-26T10:36:30;5.37;;;4.70;;
920;SDS011;447;51.332;6.778;2023-06-26T10:39:03;6.30;;;4.77;;
920;SDS011;447;51.332;6.778;2023-06-26T10:41:37;5.50;;;4.60;;
920;SDS011;447;51.332;6.778;2023-06-26T10:44:05;7.87;;;5.20;;
920;SDS011;447;51.332;6.778;2023-06-26T10:46:52;6.40;;;5.07;;
920;SDS011;447;51.332;6.778;2023-06-26T10:49:20;5.37;;;4.87;;
920;SDS011;447;51.332;6.778;2023-06-26T10:51:51;6.00;;;5.40;;
920;SDS011;447;51.332;6.778;2023-06-26T10:54:19;6.73;;;4.80;;
920;SDS011;447;51.332;6.778;2023-06-26T10:56:49;5.20;;;4.70;;
920;SDS011;447;51.332;6.778;2023-06-26T10:59:20;5.80;;;5.30;;
920;SDS011;447;51.332;6.778;2023-06-26T11:01:58;4.83;;;4.13;;
920;SDS011;447;51.332;6.778;2023-06-26T11:07:14;5.07;;;4.27;;
920;SDS011;447;51.332;6.778;2023-06-26T11:12:35;4.80;;;4.40;;
920;SDS011;447;51.332;6.778;2023-06-26T11:15:06;5.17;;;4.67;;
920;SDS011;447;51.332;6.778;2023-06-26T11:17:36;6.27;;;4.97;;
920;SDS011;447;51.332;6.778;2023-06-26T11:20:06;5.00;;;4.50;;
920;SDS011;447;51.332;6.778;2023-06-26T11:22:36;4.90;;;4.60;;
920;SDS011;447;51.332;6.778;2023-06-26T11:25:03;4.77;;;4.40;;
920;SDS011;447;51.332;6.778;2023-06-26T11:27:40;5.03;;;4.63;;
920;SDS011;447;51.332;6.778;2023-06-26T11:30:07;4.43;;;4.13;;
920;SDS011;447;51.332;6.778;2023-06-26T11:32:34;5.33;;;4.80;;
920;SDS011;447;51.332;6.778;2023-06-26T11:35:03;4.80;;;4.50;;
920;SDS011;447;51.332;6.778;2023-06-26T11:37:30;4.60;;;4.20;;
920;SDS011;447;51.332;6.778;2023-06-26T11:39:57;5.50;;;5.00;;
920;SDS011;447;51.332;6.778;2023-06-26T11:42:23;5.53;;;4.20;;
920;SDS011;447;51.332;6.778;2023-06-26T11:44:53;4.80;;;4.50;;
920;SDS011;447;51.332;6.778;2023-06-26T11:47:19;4.80;;;4.37;;
920;SDS011;447;51.332;6.778;2023-06-26T11:49:46;3.90;;;3.70;;
920;SDS011;447;51.332;6.778;2023-06-26T11:52:16;4.83;;;4.43;;
920;SDS011;447;51.332;6.778;2023-06-26T11:54:42;4.30;;;4.00;;
920;SDS011;447;51.332;6.778;2023-06-26T11:57:12;6.03;;;4.43;;
920;SDS011;447;51.332;6.778;2023-06-26T12:02:41;4.23;;;3.90;;
920;SDS011;447;51.332;6.778;2023-06-26T12:05:10;4.27;;;3.87;;
920;SDS011;447;51.332;6.778;2023-06-26T12:07:40;5.00;;;4.50;;
920;SDS011;447;51.332;6.778;2023-06-26T12:10:14;4.17;;;3.67;;
920;SDS011;447;51.332;6.778;2023-06-26T12:12:40;4.40;;;4.03;;
920;SDS011;447;51.332;6.778;2023-06-26T12:15:07;4.27;;;3.87;;
920;SDS011;447;51.332;6.778;2023-06-26T12:17:39;4.00;;;3.70;;
920;SDS011;447;51.332;6.778;2023-06-26T12:20:20;3.90;;;3.60;;
920;SDS011;447;51.332;6.778;2023-06-26T12:22:50;4.23;;;3.83;;
920;SDS011;447;51.332;6.778;2023-06-26T12:25:22;4.10;;;3.80;;
920;SDS011;447;51.332;6.778;2023-06-26T12:27:49;3.93;;;3.73;;
920;SDS011;447;51.332;6.778;2023-06-26T12:30:15;5.13;;;3.50;;
920;SDS011;447;51.332;6.778;2023-06-26T12:32:50;3.77;;;3.50;;
920;SDS011;447;51.332;6.778;2023-06-26T12:35:16;4.27;;;3.60;;
920;SDS011;447;51.332;6.778;2023-06-26T12:37:51;4.03;;;3.73;;
920;SDS011;447;51.332;6.778;2023-06-26T12:40:19;4.93;;;3.67;;
920;SDS011;447;51.332;6.778;2023-06-26T12:42:48;3.83;;;3.40;;
920;SDS011;447;51.332;6.778;2023-06-26T12:45:38;4.10;;;3.70;;
920;SDS011;447;51.332;6.778;2023-06-26T12:48:21;3.83;;;3.53;;
920;SDS011;447;51.332;6.778;2023-06-26T12:50:47;3.87;;;3.50;;
920;SDS011;447;51.332;6.778;2023-06-26T12:53:15;3.47;;;3.27;;
920;SDS011;447;51.332;6.778;2023-06-26T12:55:55;4.03;;;3.73;;
920;SDS011;447;51.332;6.778;2023-06-26T12:58:21;3.60;;;3.30;;
920;SDS011;447;51.332;6.778;2023-06-26T13:00:47;3.63;;;3.10;;
920;SDS011;447;51.332;6.778;2023-06-26T13:03:13;4.23;;;3.13;;
920;SDS011;447;51.332;6.778;2023-06-26T13:05:39;4.97;;;3.40;;
920;SDS011;447;51.332;6.778;2023-06-26T13:08:05;3.27;;;3.07;;
920;SDS011;447;51.332;6.778;2023-06-26T13:10:31;3.50;;;3.30;;
920;SDS011;447;51.332;6.778;2023-06-26T13:12:56;3.80;;;3.50;;
920;SDS011;447;51.332;6.778;2023-06-26T13:15:22;5.33;;;3.57;;
920;SDS011;447;51.332;6.778;2023-06-26T13:17:49;3.50;;;3.20;;
920;SDS011;447;51.332;6.778;2023-06-26T13:20:16;4.23;;;3.17;;
920;SDS011;447;51.332;6.778;2023-06-26T13:23:04;3.80;;;3.33;;
920;SDS011;447;51.332;6.778;2023-06-26T13:25:30;5.53;;;2.90;;
920;SDS011;447;51.332;6.778;2023-06-26T13:28:02;3.50;;;3.20;;
920;SDS011;447;51.332;6.778;2023-06-26T13:30:30;4.03;;;3.63;;
920;SDS011;447;51.332;6.778;2023-06-26T13:32:56;5.10;;;3.10;;
920;SDS011;447;51.332;6.778;2023-06-26T13:35:22;3.63;;;3.33;;
920;SDS011;447;51.332;6.778;2023-06-26T13:37:48;3.00;;;2.80;;
920;SDS011;447;51.332;6.778;2023-06-26T13:40:14;3.10;;;2.90;;
920;SDS011;447;51.332;6.778;2023-06-26T13:42:40;4.03;;;3.40;;
920;SDS011;447;51.332;6.778;2023-06-26T13:45:07;4.13;;;3.23;;
920;SDS011;447;51.332;6.778;2023-06-26T13:47:33;4.00;;;3.70;;
920;SDS011;447;51.332;6.778;2023-06-26T13:49:59;3.60;;;2.90;;
920;SDS011;447;51.332;6.778;2023-06-26T13:52:26;3.23;;;2.93;;
920;SDS011;447;51.332;6.778;2023-06-26T13:54:51;3.50;;;3.20;;
920;SDS011;447;51.332;6.778;2023-06-26T13:57:17;3.10;;;2.90;;
920;SDS011;447;51.332;6.778;2023-06-26T13:59:47;6.83;;;3.30;;
920;SDS011;447;51.332;6.778;2023-06-26T14:02:13;2.93;;;2.73;;
920;SDS011;447;51.332;6.778;2023-06-26T14:04:39;4.13;;;3.00;;
920;SDS011;447;51.332;6.778;2023-06-26T14:07:05;3.00;;;2.70;;
920;SDS011;447;51.332;6.778;2023-06-26T14:09:33;3.07;;;2.87;;
920;SDS011;447;51.332;6.778;2023-06-26T14:11:59;3.57;;;3.23;;
920;SDS011;447;51.332;6.778;2023-06-26T14:14:25;3.63;;;3.33;;
920;SDS011;447;51.332;6.778;2023-06-26T14:16:51;3.40;;;3.20;;
920;SDS011;447;51.332;6.778;2023-06-26T14:19:17;3.43;;;3.23;;
920;SDS011;447;51.332;6.778;2023-06-26T14:21:43;3.40;;;2.90;;
920;SDS011;447;51.332;6.778;2023-06-26T14:24:09;3.83;;;2.90;;
920;SDS011;447;51.332;6.778;2023-06-26T14:26:35;3.20;;;2.90;;
920;SDS011;447;51.332;6.778;2023-06-26T14:29:02;3.33;;;3.03;;
920;SDS011;447;51.332;6.778;2023-06-26T14:31:28;2.90;;;2.70;;
920;SDS011;447;51.332;6.778;2023-06-26T14:33:54;3.27;;;3.07;;
920;SDS011;447;51.332;6.778;2023-06-26T14:36:21;3.47;;;3.27;;
920;SDS011;447;51.332;6.778;2023-06-26T14:38:48;3.77;;;3.47;;
920;SDS011;447;51.332;6.778;2023-06-26T14:41:16;3.30;;;3.10;;
920;SDS011;447;51.332;6.778;2023-06-26T14:43:42;3.70;;;3.30;;
920;SDS011;447;51.332;6.778;2023-06-26T14:46:08;3.10;;;2.90;;
920;SDS011;447;51.332;6.778;2023-06-26T14:48:36;5.07;;;3.27;;
920;SDS011;447;51.332;6.778;2023-06-26T14:51:02;3.67;;;3.37;;
920;SDS011;447;51.332;6.778;2023-06-26T14:53:28;3.53;;;3.23;;
920;SDS011;447;51.332;6.778;2023-06-26T14:55:54;3.23;;;3.03;;
920;SDS011;447;51.332;6.778;2023-06-26T14:58:21;3.47;;;3.20;;
920;SDS011;447;51.332;6.778;2023-06-26T15:00:52;3.00;;;2.80;;
920;SDS011;447;51.332;6.778;2023-06-26T15:03:20;3.03;;;2.83;;
920;SDS011;447;51.332;6.778;2023-06-26T15:05:48;3.47;;;3.27;;
920;SDS011;447;51.332;6.778;2023-06-26T15:08:14;3.10;;;2.90;;
920;SDS011;447;51.332;6.778;2023-06-26T15:10:40;3.27;;;2.93;;
920;SDS011;447;51.332;6.778;2023-06-26T15:13:06;3.30;;;3.10;;
920;SDS011;447;51.332;6.778;2023-06-26T15:15:32;3.50;;;3.30;;
920;SDS011;447;51.332;6.778;2023-06-26T15:18:06;3.27;;;2.83;;
920;SDS011;447;51.332;6.778;2023-06-26T15:20:32;3.03;;;2.83;;
920;SDS011;447;51.332;6.778;2023-06-26T15:23:00;2.70;;;2.50;;
920;SDS011;447;51.332;6.778;2023-06-26T15:25:26;3.77;;;3.10;;
920;SDS011;447;51.332;6.778;2023-06-26T15:27:53;2.97;;;2.80;;
920;SDS011;447;51.332;6.778;2023-06-26T15:30:21;3.40;;;3.20;;
920;SDS011;447;51.332;6.778;2023-06-26T15:32:54;3.27;;;3.03;;
920;SDS011;447;51.332;6.778;2023-06-26T15:35:20;2.90;;;2.70;;
920;SDS011;447;51.332;6.778;2023-06-26T15:37:46;3.70;;;3.40;;
920;SDS011;447;51.332;6.778;2023-06-26T15:40:15;5.40;;;3.60;;
920;SDS011;447;51.332;6.778;2023-06-26T15:42:52;3.20;;;3.00;;
920;SDS011;447;51.332;6.778;2023-06-26T15:45:18;3.60;;;3.40;;
920;SDS011;447;51.332;6.778;2023-06-26T15:47:47;3.70;;;3.40;;
920;SDS011;447;51.332;6.778;2023-06-26T15:50:14;3.50;;;3.30;;
920;SDS011;447;51.332;6.778;2023-06-26T15:52:44;3.50;;;3.20;;
920;SDS011;447;51.332;6.778;2023-06-26T15:55:10;3.10;;;2.90;;
920;SDS011;447;51.332;6.778;2023-06-26T15:57:36;3.87;;;3.00;;
920;SDS011;447;51.332;6.778;2023-06-26T16:00:03;3.07;;;2.87;;
920;SDS011;447;51.332;6.778;2023-06-26T16:02:38;3.40;;;3.20;;
920;SDS011;447;51.332;6.778;2023-06-26T16:05:06;3.50;;;3.30;;
920;SDS011;447;51.332;6.778;2023-06-26T16:07:35;3.50;;;3.20;;
920;SDS011;447;51.332;6.778;2023-06-26T16:10:03;3.40;;;3.20;;
920;SDS011;447;51.332;6.778;2023-06-26T16:12:30;3.37;;;3.17;;
920;SDS011;447;51.332;6.778;2023-06-26T16:14:58;3.63;;;3.33;;
920;SDS011;447;51.332;6.778;2023-06-26T16:17:24;4.43;;;2.93;;
920;SDS011;447;51.332;6.778;2023-06-26T16:19:52;3.30;;;3.10;;
920;SDS011;447;51.332;6.778;2023-06-26T16:22:23;3.30;;;3.10;;
920;SDS011;447;51.332;6.778;2023-06-26T16:24:50;3.20;;;3.00;;
920;SDS011;447;51.332;6.778;2023-06-26T16:27:16;3.47;;;3.17;;